Time;durP1;ratioP1;P1;durP2;ratioP2;P2;SDS_P1;SDS_P2;PMS_P1;PMS_P2;Temp;Humidity;BMP_temperature;BMP_pressure;BME280_temperature;BME280_humidity;BME280_pressure;Samples;Min_cycle;Max_cycle;Signal;HPM_P1;HPM_P2
2022/03/23 00:02:03;;;;;;;11.17;8.43;;;;;;;6.13;52.30;97750.75;5057470;28;20233;-50
2022/03/23 00:04:32;;;;;;;8.93;8.03;;;;;;;6.12;51.94;97748.25;5057924;28;20210;-50
2022/03/23 00:06:59;;;;;;;9.43;8.43;;;;;;;6.08;52.44;97749.34;5058272;28;20207;-49
2022/03/23 00:09:27;;;;;;;9.07;8.17;;;;;;;5.99;53.30;97743.69;5059213;28;20207;-50
2022/03/23 00:11:54;;;;;;;10.40;8.63;;;;;;;5.94;53.14;97745.75;5057559;28;20196;-51
2022/03/23 00:14:20;;;;;;;10.10;9.10;;;;;;;5.94;53.27;97740.50;5066389;28;20267;-52
2022/03/23 00:16:48;;;;;;;16.03;9.00;;;;;;;5.87;53.57;97747.03;5067879;28;20804;-50
2022/03/23 00:19:17;;;;;;;12.03;8.80;;;;;;;5.78;54.43;97739.63;5058056;28;20222;-50
2022/03/23 00:21:45;;;;;;;10.53;9.20;;;;;;;5.84;53.89;97744.56;5060495;28;20226;-50
2022/03/23 00:24:12;;;;;;;9.40;8.50;;;;;;;5.87;53.68;97754.91;5057970;28;20246;-50
2022/03/23 00:26:38;;;;;;;12.80;9.07;;;;;;;5.87;54.81;97757.53;5057096;28;20200;-51
2022/03/23 00:29:06;;;;;;;13.07;9.20;;;;;;;5.82;54.76;97751.66;5059355;28;20217;-51
2022/03/23 00:31:34;;;;;;;12.33;8.80;;;;;;;5.83;55.46;97750.72;5058162;28;20214;-52
2022/03/23 00:34:00;;;;;;;9.90;8.83;;;;;;;5.83;55.18;97755.97;5057557;28;20218;-51
2022/03/23 00:36:27;;;;;;;9.47;8.30;;;;;;;5.82;55.15;97758.66;5070886;28;20191;-52
2022/03/23 00:38:55;;;;;;;10.63;9.20;;;;;;;5.58;56.63;97760.91;5079069;28;20195;-51
2022/03/23 00:41:24;;;;;;;10.70;8.60;;;;;;;5.61;56.28;97752.00;5070574;28;20222;-51
2022/03/23 00:43:50;;;;;;;13.90;9.27;;;;;;;5.59;56.13;97757.34;5059217;28;20552;-52
2022/03/23 00:46:16;;;;;;;12.70;9.13;;;;;;;5.51;56.96;97763.03;5057092;28;20211;-51
2022/03/23 00:48:43;;;;;;;10.83;9.10;;;;;;;5.49;56.06;97758.81;5067597;28;20203;-51
2022/03/23 00:51:09;;;;;;;10.40;9.10;;;;;;;5.44;57.12;97760.81;5078640;28;20191;-51
2022/03/23 00:53:37;;;;;;;10.13;9.13;;;;;;;5.46;56.48;97758.94;5077222;28;20191;-50
2022/03/23 00:56:07;;;;;;;11.07;9.13;;;;;;;5.46;55.92;97753.69;5071489;28;20211;-52
2022/03/23 00:58:33;;;;;;;9.97;8.93;;;;;;;5.41;57.06;97753.13;5048823;28;20231;-50
2022/03/23 01:01:02;;;;;;;10.60;8.90;;;;;;;5.32;57.62;97754.47;5057958;28;20211;-51
2022/03/23 01:03:29;;;;;;;11.63;9.60;;;;;;;5.23;57.99;97760.22;5058711;28;20666;-51
2022/03/23 01:05:56;;;;;;;10.57;9.40;;;;;;;5.27;58.20;97763.53;5058218;28;20208;-52
2022/03/23 01:08:22;;;;;;;10.00;9.00;;;;;;;5.28;57.74;97766.03;5065755;28;20294;-52
2022/03/23 01:10:49;;;;;;;11.10;9.23;;;;;;;5.23;58.12;97769.84;5077923;28;20214;-53
2022/03/23 01:13:18;;;;;;;10.83;9.50;;;;;;;5.19;58.51;97771.78;5078053;28;20194;-52
2022/03/23 01:15:44;;;;;;;12.40;9.23;;;;;;;4.90;59.29;97760.25;5078851;28;20247;-51
2022/03/23 01:18:11;;;;;;;11.37;9.73;;;;;;;4.89;59.14;97758.53;5078742;28;20217;-50
2022/03/23 01:20:38;;;;;;;9.63;8.63;;;;;;;4.92;58.20;97760.16;5077855;28;20211;-51
2022/03/23 01:23:05;;;;;;;9.83;8.57;;;;;;;4.94;58.10;97756.53;5078553;28;20234;-50
2022/03/23 01:25:31;;;;;;;10.87;9.73;;;;;;;4.82;58.83;97762.41;5078415;28;20233;-50
2022/03/23 01:27:58;;;;;;;14.67;9.50;;;;;;;4.79;59.56;97757.31;5084300;28;20182;-53
2022/03/23 01:30:25;;;;;;;12.07;9.07;;;;;;;4.72;58.62;97753.34;5085112;28;20183;-51
2022/03/23 01:32:53;;;;;;;9.87;8.57;;;;;;;4.76;59.06;97762.72;5078071;28;20191;-51
2022/03/23 01:35:22;;;;;;;11.10;9.20;;;;;;;4.70;59.99;97757.81;5071295;28;20214;-50
2022/03/23 01:37:48;;;;;;;11.07;8.80;;;;;;;4.70;58.24;97757.81;5057100;28;20214;-51
2022/03/23 01:40:16;;;;;;;10.03;8.80;;;;;;;4.69;58.12;97756.13;5056720;28;20203;-49
2022/03/23 01:42:45;;;;;;;10.50;9.43;;;;;;;4.73;58.66;97760.28;5056232;28;20235;-52
2022/03/23 01:45:14;;;;;;;9.47;8.57;;;;;;;4.72;58.48;97758.56;5056439;28;20199;-51
2022/03/23 01:47:42;;;;;;;9.60;8.17;;;;;;;4.77;58.78;97756.56;5056003;28;20207;-50
2022/03/23 01:50:10;;;;;;;9.23;8.20;;;;;;;4.82;58.12;97762.41;5056094;28;20203;-49
2022/03/23 01:52:39;;;;;;;10.17;8.23;;;;;;;4.69;60.26;97756.13;5055982;28;20505;-51
2022/03/23 01:55:09;;;;;;;11.70;9.40;;;;;;;4.68;59.33;97762.28;5055930;28;20280;-50
2022/03/23 01:57:37;;;;;;;11.07;8.80;;;;;;;4.65;59.08;97765.06;5062340;28;20218;-49
2022/03/23 02:00:07;;;;;;;12.20;8.80;;;;;;;4.64;59.06;97758.13;5061331;28;20207;-50
2022/03/23 02:02:34;;;;;;;12.17;8.87;;;;;;;4.50;59.84;97768.47;5048596;28;20238;-50
2022/03/23 02:05:04;;;;;;;12.63;9.17;;;;;;;4.25;60.25;97766.25;5052994;28;20207;-50
2022/03/23 02:07:31;;;;;;;12.27;9.87;;;;;;;4.34;59.42;97759.69;5055090;28;20280;-50
2022/03/23 02:09:58;;;;;;;13.00;9.60;;;;;;;4.37;59.37;97770.88;5055249;28;20635;-49
2022/03/23 02:12:25;;;;;;;11.63;9.73;;;;;;;4.35;60.60;97764.88;5055455;28;20206;-51
2022/03/23 02:14:52;;;;;;;11.00;9.20;;;;;;;4.35;60.06;97775.34;5055312;28;20210;-50
2022/03/23 02:17:19;;;;;;;13.60;9.40;;;;;;;4.43;59.80;97774.94;5054834;28;20271;-50
2022/03/23 02:19:45;;;;;;;10.80;9.70;;;;;;;4.42;59.85;97768.03;5054855;28;20206;-51
2022/03/23 02:22:14;;;;;;;12.30;9.70;;;;;;;4.29;60.71;97767.78;5062094;28;20217;-51
2022/03/23 02:24:41;;;;;;;12.07;9.97;;;;;;;4.31;60.09;97770.34;5077113;28;20269;-51
2022/03/23 02:27:08;;;;;;;10.70;9.13;;;;;;;4.37;59.97;97776.09;5077577;28;20278;-49
2022/03/23 02:29:35;;;;;;;11.00;9.80;;;;;;;4.23;61.17;97768.09;5090032;28;20182;-50
2022/03/23 02:32:02;;;;;;;12.90;9.90;;;;;;;4.18;61.29;97770.09;5078427;28;20209;-50
2022/03/23 02:34:30;;;;;;;12.53;10.60;;;;;;;4.08;62.76;97768.00;5078204;28;20205;-50
2022/03/23 02:36:57;;;;;;;11.90;10.40;;;;;;;4.06;62.25;97762.00;5078665;28;20266;-51
2022/03/23 02:39:25;;;;;;;12.87;9.70;;;;;;;4.12;61.83;97769.56;5057798;28;20222;-50
2022/03/23 02:41:53;;;;;;;11.47;10.27;;;;;;;4.05;62.47;97762.94;5064515;28;20223;-48
2022/03/23 02:44:22;;;;;;;12.50;10.10;;;;;;;3.94;62.44;97771.31;5061702;28;20238;-48
2022/03/23 02:46:48;;;;;;;11.17;9.33;;;;;;;4.05;61.84;97768.16;5060700;28;20210;-49
2022/03/23 02:49:16;;;;;;;12.17;10.87;;;;;;;3.96;62.07;97770.34;5059343;28;20643;-49
2022/03/23 02:51:46;;;;;;;12.00;10.13;;;;;;;3.99;62.94;97777.16;5058989;28;20215;-50
2022/03/23 03:02:39;;;;;;;11.57;9.43;;;;;;;4.02;62.13;97787.50;5054792;28;20222;-51
2022/03/23 03:05:07;;;;;;;11.77;9.87;;;;;;;3.96;61.82;97788.66;5055296;28;20223;-50
2022/03/23 03:10:15;;;;;;;12.77;10.00;;;;;;;3.89;61.45;97787.25;5055407;28;20285;-49
2022/03/23 03:12:43;;;;;;;13.07;9.87;;;;;;;3.93;61.57;97782.72;5054610;28;20214;-49
2022/03/23 03:15:10;;;;;;;13.27;10.37;;;;;;;3.79;62.42;97780.75;5055150;28;20233;-48
2022/03/23 03:17:39;;;;;;;10.77;9.70;;;;;;;3.81;62.62;97780.69;5058410;28;20206;-49
2022/03/23 03:20:08;;;;;;;14.30;9.33;;;;;;;3.84;62.61;97781.38;5055529;28;20222;-50
2022/03/23 03:22:35;;;;;;;15.17;10.23;;;;;;;3.71;63.94;97793.38;5055648;28;20238;-49
2022/03/23 03:25:02;;;;;;;13.30;9.40;;;;;;;3.53;64.94;97796.84;5056441;28;20246;-49
2022/03/23 03:27:35;;;;;;;10.67;9.37;;;;;;;3.67;62.66;97783.97;5054501;28;20210;-50
2022/03/23 03:30:07;;;;;;;11.60;9.40;;;;;;;3.70;62.57;97791.66;5054778;28;20203;-50
2022/03/23 03:32:34;;;;;;;14.17;9.50;;;;;;;3.66;62.54;97792.72;5053946;28;20642;-49
2022/03/23 03:35:01;;;;;;;11.87;9.23;;;;;;;3.59;62.75;97800.94;5053833;28;20203;-50
2022/03/23 03:37:28;;;;;;;12.53;10.00;;;;;;;3.49;62.79;97801.38;5054712;28;20217;-50
2022/03/23 03:39:55;;;;;;;10.73;9.60;;;;;;;3.54;62.99;97805.53;5054768;28;20211;-49
2022/03/23 03:42:21;;;;;;;10.73;9.63;;;;;;;3.65;62.62;97801.47;5043621;28;20259;-51
2022/03/23 03:44:50;;;;;;;12.13;9.60;;;;;;;3.54;63.69;97803.78;5044327;28;20539;-49
2022/03/23 03:47:19;;;;;;;10.63;9.13;;;;;;;3.54;62.47;97803.78;5055449;28;20206;-50
2022/03/23 03:49:46;;;;;;;10.33;9.30;;;;;;;3.51;63.11;97814.34;5052155;28;20208;-51
2022/03/23 03:52:15;;;;;;;12.50;9.67;;;;;;;3.51;62.64;97812.59;5057253;28;20210;-50
2022/03/23 03:54:42;;;;;;;10.93;9.33;;;;;;;3.53;63.38;97817.75;5058896;28;20230;-49
2022/03/23 03:57:09;;;;;;;11.80;9.53;;;;;;;3.59;63.06;97804.41;5063888;28;20293;-49
2022/03/23 03:59:35;;;;;;;10.73;9.70;;;;;;;3.58;62.89;97814.94;5061081;28;20210;-49
2022/03/23 04:02:02;;;;;;;11.17;9.33;;;;;;;3.54;63.17;97811.63;5063763;28;20604;-51
2022/03/23 04:04:30;;;;;;;10.33;9.33;;;;;;;3.62;63.65;97826.94;5065583;28;20210;-50
2022/03/23 04:06:57;;;;;;;12.20;9.43;;;;;;;3.60;63.45;97815.72;5044174;28;20196;-49
2022/03/23 04:09:24;;;;;;;12.23;10.57;;;;;;;3.42;64.19;97815.66;5058452;28;20546;-51
2022/03/23 04:11:50;;;;;;;10.80;9.60;;;;;;;3.31;65.17;97817.06;5064316;28;20218;-50
2022/03/23 04:14:17;;;;;;;11.23;10.03;;;;;;;3.31;65.90;97823.13;5063388;28;20198;-50
2022/03/23 04:16:44;;;;;;;16.67;10.97;;;;;;;3.34;65.86;97823.00;5061799;28;20207;-48
2022/03/23 04:19:10;;;;;;;13.73;11.33;;;;;;;3.36;65.24;97825.53;5057544;28;20639;-51
2022/03/23 04:21:38;;;;;;;15.93;10.90;;;;;;;3.25;66.29;97830.41;5057682;28;20210;-50
2022/03/23 04:24:06;;;;;;;15.37;11.07;;;;;;;3.34;65.98;97828.22;5056987;28;20238;-51
2022/03/23 04:26:32;;;;;;;14.20;12.10;;;;;;;3.33;66.59;97828.31;5057300;28;20212;-51
2022/03/23 04:28:59;;;;;;;14.07;11.23;;;;;;;3.22;67.20;97835.78;5057767;28;20214;-51
2022/03/23 04:31:26;;;;;;;13.37;11.23;;;;;;;3.23;66.54;97830.47;5057158;28;20205;-48
2022/03/23 04:33:54;;;;;;;14.40;10.80;;;;;;;3.30;66.21;97836.25;5056005;28;20207;-50
2022/03/23 04:36:21;;;;;;;16.90;11.77;;;;;;;3.28;66.66;97836.34;5057488;28;20245;-51
2022/03/23 04:38:52;;;;;;;14.63;11.73;;;;;;;3.17;67.38;97835.97;5057488;28;20214;-50
2022/03/23 04:41:20;;;;;;;12.67;11.00;;;;;;;3.24;66.84;97841.78;5057048;28;20211;-51
2022/03/23 04:43:47;;;;;;;18.73;12.20;;;;;;;3.21;66.75;97847.16;5056890;28;20230;-50
2022/03/23 04:46:15;;;;;;;13.50;11.80;;;;;;;3.18;67.02;97842.91;5057236;28;20219;-50
2022/03/23 04:48:43;;;;;;;14.63;11.73;;;;;;;3.24;67.11;97844.38;5057053;28;20210;-50
2022/03/23 04:51:09;;;;;;;15.90;12.40;;;;;;;3.13;68.06;97844.00;5056942;28;20194;-49
2022/03/23 04:53:36;;;;;;;15.07;12.57;;;;;;;3.12;68.48;97845.78;5073278;28;20189;-50
2022/03/23 04:56:05;;;;;;;15.00;11.57;;;;;;;3.08;68.30;97838.16;5078635;28;20194;-49
2022/03/23 04:58:32;;;;;;;14.30;12.17;;;;;;;3.17;69.17;97845.59;5079977;28;20516;-50
2022/03/23 05:00:59;;;;;;;16.20;12.70;;;;;;;3.14;69.21;97848.34;5058227;28;20207;-49
2022/03/23 05:03:26;;;;;;;14.13;10.90;;;;;;;3.17;68.59;97856.03;5058149;28;20242;-50
2022/03/23 05:05:52;;;;;;;15.50;12.83;;;;;;;2.97;70.51;97849.94;5045441;28;20215;-50
2022/03/23 05:08:19;;;;;;;15.50;12.37;;;;;;;3.02;70.29;97852.31;5055440;28;20214;-50
2022/03/23 05:10:45;;;;;;;16.43;12.17;;;;;;;2.94;69.98;97850.03;5056316;28;20209;-50
2022/03/23 05:13:14;;;;;;;16.57;12.10;;;;;;;2.91;69.59;97860.63;5056987;28;20210;-49
2022/03/23 05:15:42;;;;;;;13.03;11.73;;;;;;;3.00;69.51;97852.41;5059608;28;20199;-50
2022/03/23 05:18:08;;;;;;;15.67;12.67;;;;;;;2.92;70.30;97859.72;5072238;28;20211;-50
2022/03/23 05:20:35;;;;;;;14.90;12.87;;;;;;;2.82;70.39;97855.81;5058109;28;20283;-49
2022/03/23 05:23:02;;;;;;;15.43;12.53;;;;;;;2.95;69.90;97851.75;5056793;28;20273;-50
2022/03/23 05:25:28;;;;;;;16.37;13.20;;;;;;;2.91;69.30;97860.63;5056071;28;20338;-49
2022/03/23 05:27:59;;;;;;;16.17;12.93;;;;;;;2.90;69.51;97868.56;5075543;28;20262;-49
2022/03/23 05:30:26;;;;;;;13.53;11.73;;;;;;;2.92;70.06;97867.56;5082783;28;20237;-51
2022/03/23 05:32:53;;;;;;;16.13;11.93;;;;;;;2.89;70.18;97872.94;5067196;28;20193;-49
2022/03/23 05:35:21;;;;;;;16.00;12.37;;;;;;;2.84;70.76;97864.44;5046154;28;20226;-50
2022/03/23 05:37:47;;;;;;;13.37;11.93;;;;;;;2.94;70.72;97864.91;5077486;28;20190;-49
2022/03/23 05:40:14;;;;;;;13.87;12.20;;;;;;;3.03;70.05;97868.88;5076944;28;20205;-49
2022/03/23 05:42:40;;;;;;;16.60;12.60;;;;;;;2.93;70.57;97871.88;5070790;28;20248;-50
2022/03/23 05:45:08;;;;;;;15.83;12.30;;;;;;;3.06;70.36;97866.09;5057981;28;20661;-50
2022/03/23 05:47:37;;;;;;;15.97;12.67;;;;;;;2.97;71.39;97868.22;5056116;28;20217;-50
2022/03/23 05:50:04;;;;;;;13.27;11.80;;;;;;;3.05;70.83;97865.25;5057348;28;20646;-48
2022/03/23 05:52:33;;;;;;;15.47;11.67;;;;;;;3.08;70.73;97867.75;5055649;28;20198;-49
2022/03/23 05:55:01;;;;;;;16.37;12.23;;;;;;;3.15;71.01;97881.41;5055618;28;20205;-49
2022/03/23 05:57:28;;;;;;;14.87;12.63;;;;;;;3.14;70.50;97877.09;5055320;28;20629;-51
2022/03/23 05:59:56;;;;;;;16.33;13.03;;;;;;;3.06;71.38;97876.56;5054299;28;20206;-49
2022/03/23 06:02:24;;;;;;;14.87;12.47;;;;;;;3.16;71.67;97891.78;5057953;28;20927;-49
2022/03/23 06:04:55;;;;;;;16.10;12.20;;;;;;;3.45;71.13;97899.19;5060296;28;20229;-49
2022/03/23 06:07:22;;;;;;;15.17;12.47;;;;;;;4.24;67.45;97885.00;5055409;28;20214;-50
2022/03/23 06:09:49;;;;;;;15.33;12.37;;;;;;;5.10;63.79;97882.38;5055437;28;20213;-48
2022/03/23 06:12:16;;;;;;;13.93;12.20;;;;;;;5.59;61.75;97885.06;5055458;28;20552;-50
2022/03/23 06:14:44;;;;;;;16.10;12.30;;;;;;;5.71;61.66;97885.25;5055489;28;20207;-49
2022/03/23 06:17:11;;;;;;;16.43;12.37;;;;;;;6.08;60.77;97875.41;5055494;28;20214;-49
2022/03/23 06:19:38;;;;;;;15.10;12.50;;;;;;;6.11;60.59;97883.09;5054988;28;20214;-49
2022/03/23 06:22:06;;;;;;;13.93;11.87;;;;;;;6.12;60.38;97876.94;5055507;28;20237;-49
2022/03/23 06:24:35;;;;;;;13.53;12.13;;;;;;;6.47;59.06;97883.66;5054184;28;20245;-51
2022/03/23 06:27:03;;;;;;;14.97;12.40;;;;;;;6.89;58.14;97883.81;5055915;28;20556;-50
2022/03/23 06:29:29;;;;;;;13.63;12.13;;;;;;;7.14;56.46;97891.09;5055848;28;20210;-50
2022/03/23 06:31:56;;;;;;;14.37;11.90;;;;;;;7.71;54.69;97880.59;5053864;28;20211;-50
2022/03/23 06:34:27;;;;;;;14.33;11.60;;;;;;;8.06;53.42;97886.28;5055473;28;20214;-51
2022/03/23 06:36:53;;;;;;;12.67;11.47;;;;;;;8.82;51.80;97883.00;5055165;28;20549;-50
2022/03/23 06:39:23;;;;;;;13.40;11.30;;;;;;;9.26;50.15;97884.44;5042828;28;20296;-51
2022/03/23 06:41:49;;;;;;;14.80;12.47;;;;;;;9.84;47.86;97887.41;5054231;28;20214;-51
2022/03/23 06:44:17;;;;;;;14.33;11.50;;;;;;;10.21;47.79;97883.00;5047061;28;20231;-51
2022/03/23 06:46:43;;;;;;;15.27;11.87;;;;;;;10.74;44.76;97883.50;5049052;28;20229;-50
2022/03/23 06:49:12;;;;;;;13.33;11.93;;;;;;;11.02;43.58;97892.91;5054975;28;20215;-50
2022/03/23 06:51:39;;;;;;;12.90;11.07;;;;;;;11.40;42.87;97893.50;5054526;28;20302;-50
2022/03/23 06:54:06;;;;;;;21.73;13.47;;;;;;;11.76;42.65;97901.25;5054958;28;20211;-50
2022/03/23 06:56:34;;;;;;;18.73;11.57;;;;;;;12.08;42.23;97889.94;5062304;28;20656;-51
2022/03/23 06:59:00;;;;;;;14.93;11.50;;;;;;;12.25;40.55;97897.41;5071813;28;20203;-51
2022/03/23 07:01:27;;;;;;;16.15;12.65;;;;;;;13.17;38.07;97892.41;5072365;28;20183;-51
2022/03/23 07:03:56;;;;;;;15.67;11.90;;;;;;;12.52;39.69;97900.47;5051204;28;20557;-50
2022/03/23 07:06:22;;;;;;;16.17;12.07;;;;;;;13.00;39.51;97900.91;5051168;28;20211;-50
2022/03/23 07:11:35;;;;;;;21.33;12.33;;;;;;;11.99;41.84;97899.44;5054070;28;20261;-50
2022/03/23 07:14:02;;;;;;;15.20;12.03;;;;;;;11.33;42.55;97909.00;5066460;28;20194;-50
2022/03/23 07:16:29;;;;;;;16.13;12.97;;;;;;;10.84;43.68;97908.34;5076719;28;20211;-52
2022/03/23 07:18:56;;;;;;;16.83;13.13;;;;;;;10.56;44.93;97896.28;5070842;28;20210;-52
2022/03/23 07:21:24;;;;;;;14.13;12.63;;;;;;;10.04;45.28;97904.47;5061104;28;20214;-51
2022/03/23 07:23:51;;;;;;;14.23;12.57;;;;;;;9.60;45.90;97902.28;5047754;28;20239;-51
2022/03/23 07:26:18;;;;;;;15.17;12.70;;;;;;;9.61;45.84;97904.00;5053714;28;20203;-50
2022/03/23 07:28:46;;;;;;;16.20;12.10;;;;;;;9.50;46.06;97901.25;5058097;28;20222;-51
2022/03/23 07:31:13;;;;;;;18.00;12.83;;;;;;;8.96;47.87;97893.47;5053381;28;20221;-50
2022/03/23 07:33:39;;;;;;;17.37;13.60;;;;;;;8.99;48.76;97903.00;5052183;28;20591;-50
2022/03/23 07:36:08;;;;;;;15.40;13.03;;;;;;;9.00;48.94;97910.81;5058522;28;20287;-50
2022/03/23 07:38:34;;;;;;;17.27;12.87;;;;;;;9.15;48.98;97905.44;5058400;28;20517;-49
2022/03/23 07:41:01;;;;;;;17.53;14.37;;;;;;;9.19;49.49;97912.22;5057556;28;20210;-51
2022/03/23 07:43:28;;;;;;;34.17;15.47;;;;;;;9.15;49.17;97913.38;5057700;28;20246;-50
2022/03/23 07:45:57;;;;;;;27.93;14.97;;;;;;;9.23;48.35;97911.91;5059243;28;20199;-49
2022/03/23 07:48:24;;;;;;;21.53;13.50;;;;;;;8.88;49.03;97906.38;5062716;28;20210;-49
2022/03/23 07:50:52;;;;;;;25.33;14.47;;;;;;;9.04;49.04;97907.97;5060300;28;20218;-49
2022/03/23 07:53:22;;;;;;;19.17;13.70;;;;;;;8.98;48.71;97909.22;5060817;28;20575;-48
2022/03/23 07:55:49;;;;;;;20.50;13.77;;;;;;;8.84;49.06;97910.16;5065973;28;20209;-50
2022/03/23 07:58:15;;;;;;;19.23;13.83;;;;;;;8.85;50.15;97903.94;5063416;28;20199;-51
2022/03/23 08:00:45;;;;;;;16.87;13.30;;;;;;;9.03;48.96;97904.50;5058181;28;20290;-48
2022/03/23 08:03:21;;;;;;;17.03;13.20;;;;;;;9.27;49.92;97905.47;5059977;28;20211;-49
2022/03/23 08:05:49;;;;;;;17.63;13.10;;;;;;;9.35;49.32;97904.97;5058567;28;20210;-48
2022/03/23 08:08:15;;;;;;;15.23;13.27;;;;;;;9.45;48.41;97900.75;5057390;28;20537;-50
2022/03/23 08:10:43;;;;;;;18.70;14.53;;;;;;;9.46;48.57;97902.41;5058880;28;20199;-49
2022/03/23 08:13:10;;;;;;;17.17;13.00;;;;;;;9.49;48.06;97897.75;5058001;28;20214;-49
2022/03/23 08:15:37;;;;;;;21.67;14.80;;;;;;;9.44;46.54;97896.41;5059209;28;20288;-50
2022/03/23 08:18:04;;;;;;;18.67;14.03;;;;;;;9.52;46.84;97902.00;5057941;28;20627;-50
2022/03/23 08:20:35;;;;;;;17.33;14.00;;;;;;;9.67;46.89;97893.00;5057167;28;20290;-50
2022/03/23 08:23:03;;;;;;;16.63;13.50;;;;;;;9.81;47.17;97900.81;5057788;28;20264;-50
2022/03/23 08:25:32;;;;;;;18.73;14.37;;;;;;;9.56;46.80;97892.06;5056716;28;20532;-50
2022/03/23 08:27:59;;;;;;;15.83;13.50;;;;;;;9.88;47.27;97899.41;5057589;28;20226;-49
2022/03/23 08:30:27;;;;;;;17.70;14.37;;;;;;;10.06;47.29;97899.91;5056475;28;20195;-50
2022/03/23 08:32:56;;;;;;;17.27;14.67;;;;;;;9.97;46.18;97897.94;5056913;28;20516;-49
2022/03/23 08:35:24;;;;;;;19.03;14.47;;;;;;;10.15;47.02;97890.53;5056382;28;20210;-49
2022/03/23 08:37:56;;;;;;;18.93;14.60;;;;;;;10.16;46.27;97892.22;5053098;28;20235;-50
2022/03/23 08:40:22;;;;;;;18.77;14.97;;;;;;;10.16;47.80;97900.16;5057022;28;20213;-49
2022/03/23 08:42:49;;;;;;;24.80;15.57;;;;;;;10.23;46.02;97883.75;5057802;28;20587;-49
2022/03/23 08:45:18;;;;;;;19.90;14.87;;;;;;;10.51;48.37;97887.88;5064082;28;20222;-49
2022/03/23 08:47:47;;;;;;;17.63;13.80;;;;;;;10.62;46.54;97885.28;5056743;28;20211;-49
2022/03/23 08:50:14;;;;;;;21.33;14.20;;;;;;;10.70;45.72;97888.19;5057411;28;20241;-50
2022/03/23 08:52:41;;;;;;;19.07;14.80;;;;;;;10.97;44.82;97899.38;5057410;28;20203;-51
2022/03/23 08:55:14;;;;;;;19.87;15.27;;;;;;;11.25;44.54;97895.50;5057937;28;20210;-51
2022/03/23 08:57:41;;;;;;;19.57;14.93;;;;;;;11.45;43.19;97891.31;5057927;28;20199;-49
2022/03/23 09:00:09;;;;;;;18.07;14.50;;;;;;;11.71;42.42;97895.47;5056377;28;20635;-50
2022/03/23 09:02:36;;;;;;;19.13;14.73;;;;;;;11.95;42.25;97890.06;5070432;28;20241;-51
2022/03/23 09:05:03;;;;;;;16.73;14.83;;;;;;;12.31;41.45;97887.13;5056728;28;20223;-48
2022/03/23 09:07:30;;;;;;;19.10;14.70;;;;;;;12.65;41.73;97890.53;5056624;28;20694;-50
2022/03/23 09:09:56;;;;;;;22.30;14.33;;;;;;;13.11;40.17;97881.47;5056901;28;20198;-49
2022/03/23 09:12:24;;;;;;;22.60;15.50;;;;;;;13.37;40.86;97883.59;5056793;28;20651;-50
2022/03/23 09:14:51;;;;;;;18.07;15.03;;;;;;;13.61;39.57;97883.31;5056746;28;20202;-49
2022/03/23 09:17:18;;;;;;;22.47;14.80;;;;;;;13.82;38.58;97868.16;5057285;28;20210;-50
2022/03/23 09:19:44;;;;;;;17.10;15.23;;;;;;;14.25;39.11;97872.38;5057090;28;20533;-49
2022/03/23 09:22:11;;;;;;;19.50;14.60;;;;;;;14.60;38.77;97879.91;5057000;28;20547;-48
2022/03/23 09:24:39;;;;;;;20.13;14.77;;;;;;;14.89;38.34;97872.78;5051289;28;20235;-49
2022/03/23 09:27:05;;;;;;;20.97;15.03;;;;;;;14.91;38.38;97874.31;5049294;28;20241;-50
2022/03/23 09:29:33;;;;;;;17.20;15.00;;;;;;;15.05;37.68;97874.91;5056973;28;20267;-51
2022/03/23 09:32:00;;;;;;;25.20;14.60;;;;;;;15.53;38.22;97867.72;5049831;28;20206;-51
2022/03/23 09:34:27;;;;;;;18.50;15.37;;;;;;;15.68;37.24;97865.44;5047272;28;20667;-50
2022/03/23 09:39:41;;;;;;;17.07;14.87;;;;;;;16.15;35.07;97869.75;5070860;28;20186;-50
2022/03/23 09:42:08;;;;;;;17.80;14.47;;;;;;;16.49;34.18;97864.63;5063058;28;20254;-50
2022/03/23 09:44:37;;;;;;;18.58;14.43;;;;;;;16.73;33.04;97864.91;5069515;28;20227;-50
2022/03/23 09:47:05;;;;;;;18.52;14.63;;;;;;;17.03;33.11;97863.72;5056500;28;20221;-49
2022/03/23 09:49:32;;;;;;;17.58;13.98;;;;;;;16.98;33.73;97860.66;5058248;28;20222;-49
2022/03/23 09:51:59;;;;;;;21.90;14.73;;;;;;;17.43;32.90;97866.72;5055183;28;20210;-51
2022/03/23 09:54:26;;;;;;;16.67;14.85;;;;;;;17.74;32.65;97856.44;5057322;28;20203;-50
2022/03/23 09:56:52;;;;;;;17.88;14.75;;;;;;;18.11;31.62;97850.75;5056222;28;20207;-51
2022/03/23 09:59:19;;;;;;;20.65;15.43;;;;;;;17.75;30.19;97847.38;5055853;28;20207;-49
2022/03/23 10:02:37;;;;;;;19.88;15.32;;;;;;;17.95;28.54;97844.50;5055974;28;20214;-51
2022/03/23 10:05:47;;;;;;;17.13;13.77;;;;;;;18.22;28.81;97850.47;5041375;28;20245;-50
2022/03/23 10:08:36;;;;;;;18.85;13.90;;;;;;;18.53;29.93;97852.63;5051861;28;20214;-52
2022/03/23 10:11:44;;;;;;;17.23;15.35;;;;;;;18.48;29.08;97842.38;5053168;28;20195;-51
2022/03/23 10:14:59;;;;;;;16.23;14.38;;;;;;;18.83;28.00;97838.63;5045015;28;20219;-50
2022/03/23 10:17:58;;;;;;;16.63;14.18;;;;;;;18.47;28.41;97839.84;5055234;28;20206;-49
2022/03/23 10:20:33;;;;;;;17.77;15.35;;;;;;;18.46;28.22;97836.31;5055924;28;20295;-52
2022/03/23 10:23:03;;;;;;;18.92;14.80;;;;;;;18.61;29.48;97834.72;5056042;28;20194;-51
2022/03/23 10:25:30;;;;;;;16.30;14.60;;;;;;;18.70;30.16;97828.41;5055748;28;20234;-50
2022/03/23 10:27:58;;;;;;;16.17;14.30;;;;;;;19.01;28.28;97827.75;5062168;28;20282;-51
2022/03/23 10:30:43;;;;;;;17.98;15.38;;;;;;;19.39;27.95;97829.75;5071955;28;20198;-50
2022/03/23 10:33:18;;;;;;;23.75;14.50;;;;;;;19.50;27.88;97824.06;5072745;28;20188;-51
2022/03/23 10:35:44;;;;;;;20.17;15.05;;;;;;;19.73;28.43;97821.50;5062661;28;20616;-49
2022/03/23 10:38:17;;;;;;;20.25;14.80;;;;;;;19.86;27.96;97817.28;5054574;28;20210;-52
2022/03/23 10:40:44;;;;;;;17.40;13.63;;;;;;;20.05;27.52;97815.22;5054579;28;20195;-50
2022/03/23 10:43:16;;;;;;;17.30;14.80;;;;;;;20.40;27.09;97811.22;5054465;28;20222;-52
2022/03/23 10:45:42;;;;;;;16.48;14.30;;;;;;;20.30;25.87;97808.72;5054263;28;20227;-49
2022/03/23 10:48:11;;;;;;;18.08;14.90;;;;;;;19.79;26.26;97812.75;5054277;28;20199;-51
2022/03/23 10:50:38;;;;;;;19.30;14.18;;;;;;;20.21;26.63;97801.69;5054551;28;20203;-49
2022/03/23 10:53:07;;;;;;;17.25;14.75;;;;;;;19.90;26.83;97811.56;5054748;28;20203;-50
2022/03/23 10:55:38;;;;;;;17.52;14.00;;;;;;;20.30;26.01;97806.03;5043195;28;20207;-50
2022/03/23 10:58:20;;;;;;;16.27;14.70;;;;;;;20.35;25.57;97799.13;5054918;28;20235;-50
2022/03/23 11:00:48;;;;;;;20.92;14.48;;;;;;;20.37;25.32;97788.19;5055265;28;20230;-49
2022/03/23 11:03:16;;;;;;;16.20;14.55;;;;;;;20.46;24.59;97789.84;5060000;28;20586;-49
2022/03/23 11:05:48;;;;;;;15.73;13.20;;;;;;;20.33;25.27;97787.72;5064209;28;20230;-49
2022/03/23 11:08:22;;;;;;;15.45;13.77;;;;;;;20.50;24.54;97784.94;5051293;28;20203;-50
2022/03/23 11:16:26;;;;;;;15.38;13.73;;;;;;;20.90;25.27;97775.78;5065082;28;20284;-49
2022/03/23 11:18:57;;;;;;;15.18;13.68;;;;;;;20.95;24.68;97773.34;5059281;28;20276;-49
2022/03/23 11:21:24;;;;;;;14.80;13.40;;;;;;;21.29;24.61;97771.09;5070167;28;20198;-50
2022/03/23 11:23:50;;;;;;;17.08;12.82;;;;;;;21.16;24.24;97765.47;5065521;28;20239;-51
2022/03/23 11:26:21;;;;;;;15.50;13.93;;;;;;;21.29;24.66;97768.41;5072545;28;20231;-51
2022/03/23 11:28:47;;;;;;;15.10;13.50;;;;;;;21.20;23.65;97769.47;5074378;28;20214;-50
2022/03/23 11:31:16;;;;;;;15.00;13.05;;;;;;;21.13;23.00;97755.94;5054333;28;20207;-52
2022/03/23 11:33:45;;;;;;;14.68;13.18;;;;;;;21.12;22.53;97753.41;5053440;28;20212;-51
2022/03/23 11:36:13;;;;;;;16.48;12.75;;;;;;;20.99;21.84;97753.16;5066530;28;20199;-49
2022/03/23 11:38:41;;;;;;;14.75;13.13;;;;;;;20.89;21.60;97757.94;5066075;28;20202;-50
2022/03/23 11:41:11;;;;;;;14.98;13.52;;;;;;;20.79;23.55;97750.97;5053707;28;20211;-51
2022/03/23 11:43:40;;;;;;;14.60;13.15;;;;;;;20.74;24.05;97737.22;5059028;28;20638;-50
2022/03/23 11:46:08;;;;;;;14.55;13.02;;;;;;;20.69;22.46;97738.81;5062753;28;20258;-50
2022/03/23 11:48:48;;;;;;;14.18;12.77;;;;;;;21.38;23.64;97735.00;5058533;28;20207;-50
2022/03/23 11:51:31;;;;;;;14.10;12.73;;;;;;;21.39;23.00;97731.28;5058864;28;20567;-52
2022/03/23 11:54:03;;;;;;;13.35;12.05;;;;;;;21.06;22.41;97725.34;5058203;28;20214;-50